sensor_id;sensor_type;location;lat;lon;timestamp;P1;P2;P0
72709;PMS7003;60827;48.398;-4.498;2022-08-04T00:01:21;0.75;0.75;0.00
72709;PMS7003;60827;48.398;-4.498;2022-08-04T00:04:16;0.00;0.00;0.00
72709;PMS7003;60827;48.398;-4.498;2022-08-04T00:06:47;0.25;0.25;0.25
72709;PMS7003;60827;48.398;-4.498;2022-08-04T00:09:43;1.75;1.00;0.25
72709;PMS7003;60827;48.398;-4.498;2022-08-04T00:12:13;0.00;0.00;0.00
72709;PMS7003;60827;48.398;-4.498;2022-08-04T00:14:44;1.00;1.00;1.00
72709;PMS7003;60827;48.398;-4.498;2022-08-04T00:17:12;2.00;1.00;1.00
72709;PMS7003;60827;48.398;-4.498;2022-08-04T00:19:39;0.75;0.75;0.00
72709;PMS7003;60827;48.398;-4.498;2022-08-04T00:22:11;0.00;0.00;0.00
72709;PMS7003;60827;48.398;-4.498;2022-08-04T00:24:38;2.00;1.75;1.00
72709;PMS7003;60827;48.398;-4.498;2022-08-04T00:27:03;2.00;2.00;1.00
72709;PMS7003;60827;48.398;-4.498;2022-08-04T00:29:30;1.00;1.00;1.00
72709;PMS7003;60827;48.398;-4.498;2022-08-04T00:31:57;5.00;1.00;1.00
72709;PMS7003;60827;48.398;-4.498;2022-08-04T00:34:27;1.00;1.00;1.00
72709;PMS7003;60827;48.398;-4.498;2022-08-04T00:36:55;3.75;1.00;1.00
72709;PMS7003;60827;48.398;-4.498;2022-08-04T00:39:21;2.00;2.00;2.00
72709;PMS7003;60827;48.398;-4.498;2022-08-04T00:47:03;1.25;1.25;1.00
72709;PMS7003;60827;48.398;-4.498;2022-08-04T00:50:01;3.00;2.00;1.75
72709;PMS7003;60827;48.398;-4.498;2022-08-04T00:58:33;2.00;2.00;2.00
72709;PMS7003;60827;48.398;-4.498;2022-08-04T01:01:20;1.50;1.50;1.00
72709;PMS7003;60827;48.398;-4.498;2022-08-04T01:04:03;2.75;1.50;1.50
72709;PMS7003;60827;48.398;-4.498;2022-08-04T01:09:18;3.50;2.00;1.00
72709;PMS7003;60827;48.398;-4.498;2022-08-04T01:30:51;2.25;1.00;0.25
72709;PMS7003;60827;48.398;-4.498;2022-08-04T01:33:20;2.00;2.00;1.00
72709;PMS7003;60827;48.398;-4.498;2022-08-04T01:35:47;1.25;1.25;1.00
72709;PMS7003;60827;48.398;-4.498;2022-08-04T01:38:35;2.50;1.50;1.00
72709;PMS7003;60827;48.398;-4.498;2022-08-04T01:43:48;1.75;1.75;1.25
72709;PMS7003;60827;48.398;-4.498;2022-08-04T01:46:18;2.00;0.25;0.25
72709;PMS7003;60827;48.398;-4.498;2022-08-04T01:48:46;3.00;1.50;1.00
72709;PMS7003;60827;48.398;-4.498;2022-08-04T01:51:17;2.00;2.00;1.50
72709;PMS7003;60827;48.398;-4.498;2022-08-04T01:53:46;4.50;2.00;1.75
72709;PMS7003;60827;48.398;-4.498;2022-08-04T01:56:11;2.00;1.25;1.00
72709;PMS7003;60827;48.398;-4.498;2022-08-04T01:58:37;3.00;2.00;1.75
72709;PMS7003;60827;48.398;-4.498;2022-08-04T02:01:05;1.25;1.00;0.75
72709;PMS7003;60827;48.398;-4.498;2022-08-04T02:03:33;4.00;1.00;0.50
72709;PMS7003;60827;48.398;-4.498;2022-08-04T02:08:57;2.75;1.00;1.00
72709;PMS7003;60827;48.398;-4.498;2022-08-04T02:11:39;2.25;1.00;1.00
72709;PMS7003;60827;48.398;-4.498;2022-08-04T02:17:08;3.00;2.00;1.00
72709;PMS7003;60827;48.398;-4.498;2022-08-04T02:19:37;1.00;1.00;0.75
72709;PMS7003;60827;48.398;-4.498;2022-08-04T02:22:10;1.25;1.25;1.00
72709;PMS7003;60827;48.398;-4.498;2022-08-04T02:24:54;0.75;0.75;0.00
72709;PMS7003;60827;48.398;-4.498;2022-08-04T02:27:54;1.00;1.00;1.00
72709;PMS7003;60827;48.398;-4.498;2022-08-04T02:30:19;3.50;2.00;1.00
72709;PMS7003;60827;48.398;-4.498;2022-08-04T02:32:46;1.00;1.00;0.75
72709;PMS7003;60827;48.398;-4.498;2022-08-04T02:35:15;1.00;1.00;1.00
72709;PMS7003;60827;48.398;-4.498;2022-08-04T02:37:52;0.25;0.25;0.25
72709;PMS7003;60827;48.398;-4.498;2022-08-04T02:40:28;0.00;0.00;0.00
72709;PMS7003;60827;48.398;-4.498;2022-08-04T02:42:54;1.00;1.00;1.00
72709;PMS7003;60827;48.398;-4.498;2022-08-04T02:45:23;2.25;2.25;1.00
72709;PMS7003;60827;48.398;-4.498;2022-08-04T02:47:50;1.00;1.00;1.00
72709;PMS7003;60827;48.398;-4.498;2022-08-04T02:50:18;1.00;1.00;1.00
72709;PMS7003;60827;48.398;-4.498;2022-08-04T02:52:44;1.75;1.00;0.75
72709;PMS7003;60827;48.398;-4.498;2022-08-04T02:55:14;1.00;1.00;1.00
72709;PMS7003;60827;48.398;-4.498;2022-08-04T02:57:42;1.00;1.00;1.00
72709;PMS7003;60827;48.398;-4.498;2022-08-04T03:00:12;2.50;1.00;1.00
72709;PMS7003;60827;48.398;-4.498;2022-08-04T03:05:10;1.75;0.75;0.25
72709;PMS7003;60827;48.398;-4.498;2022-08-04T03:07:55;0.00;0.00;0.00
72709;PMS7003;60827;48.398;-4.498;2022-08-04T03:16:11;1.00;1.00;1.00
72709;PMS7003;60827;48.398;-4.498;2022-08-04T03:30:18;0.00;0.00;0.00
72709;PMS7003;60827;48.398;-4.498;2022-08-04T03:33:00;0.50;0.00;0.00
72709;PMS7003;60827;48.398;-4.498;2022-08-04T03:41:45;0.25;0.25;0.00
72709;PMS7003;60827;48.398;-4.498;2022-08-04T04:07:16;1.00;1.00;0.25
72709;PMS7003;60827;48.398;-4.498;2022-08-04T04:15:57;0.00;0.00;0.00
72709;PMS7003;60827;48.398;-4.498;2022-08-04T04:26:56;0.00;0.00;0.00
72709;PMS7003;60827;48.398;-4.498;2022-08-04T04:29:45;2.00;0.00;0.00
72709;PMS7003;60827;48.398;-4.498;2022-08-04T04:32:32;0.00;0.00;0.00
72709;PMS7003;60827;48.398;-4.498;2022-08-04T04:46:09;1.25;0.00;0.00
72709;PMS7003;60827;48.398;-4.498;2022-08-04T04:49:00;0.00;0.00;0.00
72709;PMS7003;60827;48.398;-4.498;2022-08-04T04:51:36;0.00;0.00;0.00
72709;PMS7003;60827;48.398;-4.498;2022-08-04T04:59:30;0.00;0.00;0.00
72709;PMS7003;60827;48.398;-4.498;2022-08-04T05:22:00;0.75;0.00;0.00
72709;PMS7003;60827;48.398;-4.498;2022-08-04T05:24:31;0.75;0.00;0.00
72709;PMS7003;60827;48.398;-4.498;2022-08-04T05:27:02;0.00;0.00;0.00
72709;PMS7003;60827;48.398;-4.498;2022-08-04T05:29:36;0.00;0.00;0.00
72709;PMS7003;60827;48.398;-4.498;2022-08-04T05:32:07;0.50;0.00;0.00
72709;PMS7003;60827;48.398;-4.498;2022-08-04T05:34:44;3.00;0.00;0.00
72709;PMS7003;60827;48.398;-4.498;2022-08-04T05:37:16;3.00;0.00;0.00
72709;PMS7003;60827;48.398;-4.498;2022-08-04T05:39:45;0.00;0.00;0.00
72709;PMS7003;60827;48.398;-4.498;2022-08-04T05:42:14;0.00;0.00;0.00
72709;PMS7003;60827;48.398;-4.498;2022-08-04T05:44:40;0.75;0.00;0.00
72709;PMS7003;60827;48.398;-4.498;2022-08-04T05:47:07;0.00;0.00;0.00
72709;PMS7003;60827;48.398;-4.498;2022-08-04T05:49:36;0.00;0.00;0.00
72709;PMS7003;60827;48.398;-4.498;2022-08-04T05:52:04;1.00;0.00;0.00
72709;PMS7003;60827;48.398;-4.498;2022-08-04T05:54:31;1.00;0.00;0.00
72709;PMS7003;60827;48.398;-4.498;2022-08-04T05:56:58;0.00;0.00;0.00
72709;PMS7003;60827;48.398;-4.498;2022-08-04T05:59:26;0.50;0.50;0.00
72709;PMS7003;60827;48.398;-4.498;2022-08-04T06:01:55;0.00;0.00;0.00
72709;PMS7003;60827;48.398;-4.498;2022-08-04T06:04:27;0.00;0.00;0.00
72709;PMS7003;60827;48.398;-4.498;2022-08-04T06:07:05;0.50;0.00;0.00
72709;PMS7003;60827;48.398;-4.498;2022-08-04T06:09:31;0.00;0.00;0.00
72709;PMS7003;60827;48.398;-4.498;2022-08-04T06:12:02;2.00;0.00;0.00
72709;PMS7003;60827;48.398;-4.498;2022-08-04T06:14:42;0.25;0.00;0.00
72709;PMS7003;60827;48.398;-4.498;2022-08-04T06:17:10;0.00;0.00;0.00
72709;PMS7003;60827;48.398;-4.498;2022-08-04T06:19:39;1.00;1.00;0.00
72709;PMS7003;60827;48.398;-4.498;2022-08-04T06:22:08;1.25;0.00;0.00
72709;PMS7003;60827;48.398;-4.498;2022-08-04T06:24:36;0.25;0.25;0.00
72709;PMS7003;60827;48.398;-4.498;2022-08-04T06:27:03;0.00;0.00;0.00
72709;PMS7003;60827;48.398;-4.498;2022-08-04T06:29:30;2.00;0.00;0.00
72709;PMS7003;60827;48.398;-4.498;2022-08-04T06:32:05;0.00;0.00;0.00
72709;PMS7003;60827;48.398;-4.498;2022-08-04T06:34:49;0.00;0.00;0.00
72709;PMS7003;60827;48.398;-4.498;2022-08-04T06:37:16;0.25;0.25;0.25
72709;PMS7003;60827;48.398;-4.498;2022-08-04T06:39:42;0.00;0.00;0.00
72709;PMS7003;60827;48.398;-4.498;2022-08-04T06:42:08;0.00;0.00;0.00
72709;PMS7003;60827;48.398;-4.498;2022-08-04T06:44:34;0.00;0.00;0.00
72709;PMS7003;60827;48.398;-4.498;2022-08-04T06:47:00;0.00;0.00;0.00
72709;PMS7003;60827;48.398;-4.498;2022-08-04T06:49:27;0.00;0.00;0.00
72709;PMS7003;60827;48.398;-4.498;2022-08-04T06:51:54;0.00;0.00;0.00
72709;PMS7003;60827;48.398;-4.498;2022-08-04T06:54:22;0.00;0.00;0.00
72709;PMS7003;60827;48.398;-4.498;2022-08-04T06:56:47;0.50;0.00;0.00
72709;PMS7003;60827;48.398;-4.498;2022-08-04T06:59:15;0.00;0.00;0.00
72709;PMS7003;60827;48.398;-4.498;2022-08-04T07:01:42;0.75;0.00;0.00
72709;PMS7003;60827;48.398;-4.498;2022-08-04T07:04:09;0.00;0.00;0.00
72709;PMS7003;60827;48.398;-4.498;2022-08-04T07:06:35;2.00;0.00;0.00
72709;PMS7003;60827;48.398;-4.498;2022-08-04T07:09:01;0.00;0.00;0.00
72709;PMS7003;60827;48.398;-4.498;2022-08-04T07:11:27;0.00;0.00;0.00
72709;PMS7003;60827;48.398;-4.498;2022-08-04T07:13:53;0.75;0.00;0.00
72709;PMS7003;60827;48.398;-4.498;2022-08-04T07:16:20;0.00;0.00;0.00
72709;PMS7003;60827;48.398;-4.498;2022-08-04T07:18:47;0.00;0.00;0.00
72709;PMS7003;60827;48.398;-4.498;2022-08-04T07:21:22;0.75;0.75;0.00
72709;PMS7003;60827;48.398;-4.498;2022-08-04T07:23:48;1.50;0.00;0.00
72709;PMS7003;60827;48.398;-4.498;2022-08-04T07:26:15;0.00;0.00;0.00
72709;PMS7003;60827;48.398;-4.498;2022-08-04T07:28:43;0.00;0.00;0.00
72709;PMS7003;60827;48.398;-4.498;2022-08-04T07:31:10;0.00;0.00;0.00
72709;PMS7003;60827;48.398;-4.498;2022-08-04T07:33:39;0.00;0.00;0.00
72709;PMS7003;60827;48.398;-4.498;2022-08-04T07:36:06;0.00;0.00;0.00
72709;PMS7003;60827;48.398;-4.498;2022-08-04T07:38:32;0.00;0.00;0.00
72709;PMS7003;60827;48.398;-4.498;2022-08-04T07:40:57;0.00;0.00;0.00
72709;PMS7003;60827;48.398;-4.498;2022-08-04T07:43:23;0.00;0.00;0.00
72709;PMS7003;60827;48.398;-4.498;2022-08-04T07:45:51;0.00;0.00;0.00
72709;PMS7003;60827;48.398;-4.498;2022-08-04T07:48:17;0.75;0.00;0.00
72709;PMS7003;60827;48.398;-4.498;2022-08-04T07:50:42;0.00;0.00;0.00
72709;PMS7003;60827;48.398;-4.498;2022-08-04T07:53:09;0.00;0.00;0.00
72709;PMS7003;60827;48.398;-4.498;2022-08-04T07:55:36;0.00;0.00;0.00
72709;PMS7003;60827;48.398;-4.498;2022-08-04T07:58:02;0.00;0.00;0.00
72709;PMS7003;60827;48.398;-4.498;2022-08-04T08:00:27;0.00;0.00;0.00
72709;PMS7003;60827;48.398;-4.498;2022-08-04T08:02:56;0.00;0.00;0.00
72709;PMS7003;60827;48.398;-4.498;2022-08-04T08:05:22;0.00;0.00;0.00
72709;PMS7003;60827;48.398;-4.498;2022-08-04T08:07:48;0.00;0.00;0.00
72709;PMS7003;60827;48.398;-4.498;2022-08-04T08:10:15;0.00;0.00;0.00
72709;PMS7003;60827;48.398;-4.498;2022-08-04T08:12:42;0.00;0.00;0.00
72709;PMS7003;60827;48.398;-4.498;2022-08-04T08:15:11;1.00;0.00;0.00
72709;PMS7003;60827;48.398;-4.498;2022-08-04T08:17:37;0.00;0.00;0.00
72709;PMS7003;60827;48.398;-4.498;2022-08-04T08:20:02;0.00;0.00;0.00
72709;PMS7003;60827;48.398;-4.498;2022-08-04T08:22:30;0.25;0.25;0.00
72709;PMS7003;60827;48.398;-4.498;2022-08-04T08:24:56;0.00;0.00;0.00
72709;PMS7003;60827;48.398;-4.498;2022-08-04T08:27:21;0.00;0.00;0.00
72709;PMS7003;60827;48.398;-4.498;2022-08-04T08:29:47;1.00;0.00;0.00
72709;PMS7003;60827;48.398;-4.498;2022-08-04T08:32:13;0.00;0.00;0.00
72709;PMS7003;60827;48.398;-4.498;2022-08-04T08:34:40;0.00;0.00;0.00
72709;PMS7003;60827;48.398;-4.498;2022-08-04T08:37:18;0.00;0.00;0.00
72709;PMS7003;60827;48.398;-4.498;2022-08-04T08:39:49;0.00;0.00;0.00
72709;PMS7003;60827;48.398;-4.498;2022-08-04T08:42:30;0.75;0.00;0.00
72709;PMS7003;60827;48.398;-4.498;2022-08-04T08:48:39;0.00;0.00;0.00
72709;PMS7003;60827;48.398;-4.498;2022-08-04T08:51:10;0.00;0.00;0.00
72709;PMS7003;60827;48.398;-4.498;2022-08-04T08:59:14;1.00;0.00;0.00
72709;PMS7003;60827;48.398;-4.498;2022-08-04T09:10:29;1.00;0.00;0.00
72709;PMS7003;60827;48.398;-4.498;2022-08-04T09:13:05;0.00;0.00;0.00
72709;PMS7003;60827;48.398;-4.498;2022-08-04T09:21:12;0.00;0.00;0.00
72709;PMS7003;60827;48.398;-4.498;2022-08-04T09:29:16;0.00;0.00;0.00
72709;PMS7003;60827;48.398;-4.498;2022-08-04T09:34:50;0.00;0.00;0.00
72709;PMS7003;60827;48.398;-4.498;2022-08-04T09:37:31;0.25;0.00;0.00
72709;PMS7003;60827;48.398;-4.498;2022-08-04T09:45:28;0.00;0.00;0.00
72709;PMS7003;60827;48.398;-4.498;2022-08-04T09:48:10;0.00;0.00;0.00
72709;PMS7003;60827;48.398;-4.498;2022-08-04T09:50:41;0.25;0.25;0.00
72709;PMS7003;60827;48.398;-4.498;2022-08-04T09:53:17;0.00;0.00;0.00
72709;PMS7003;60827;48.398;-4.498;2022-08-04T09:58:48;0.00;0.00;0.00
72709;PMS7003;60827;48.398;-4.498;2022-08-04T10:01:18;0.00;0.00;0.00
72709;PMS7003;60827;48.398;-4.498;2022-08-04T10:04:07;0.00;0.00;0.00
72709;PMS7003;60827;48.398;-4.498;2022-08-04T10:09:33;0.75;0.00;0.00
72709;PMS7003;60827;48.398;-4.498;2022-08-04T10:15:03;0.00;0.00;0.00
72709;PMS7003;60827;48.398;-4.498;2022-08-04T10:18:06;0.00;0.00;0.00
72709;PMS7003;60827;48.398;-4.498;2022-08-04T10:23:56;0.00;0.00;0.00
72709;PMS7003;60827;48.398;-4.498;2022-08-04T10:26:42;0.00;0.00;0.00
72709;PMS7003;60827;48.398;-4.498;2022-08-04T10:32:35;0.00;0.00;0.00
72709;PMS7003;60827;48.398;-4.498;2022-08-04T10:35:07;0.00;0.00;0.00
72709;PMS7003;60827;48.398;-4.498;2022-08-04T10:37:39;0.00;0.00;0.00
72709;PMS7003;60827;48.398;-4.498;2022-08-04T10:40:13;0.00;0.00;0.00
72709;PMS7003;60827;48.398;-4.498;2022-08-04T10:45:39;0.75;0.00;0.00
72709;PMS7003;60827;48.398;-4.498;2022-08-04T10:48:15;0.00;0.00;0.00
72709;PMS7003;60827;48.398;-4.498;2022-08-04T10:51:05;0.00;0.00;0.00
72709;PMS7003;60827;48.398;-4.498;2022-08-04T10:53:39;0.00;0.00;0.00
72709;PMS7003;60827;48.398;-4.498;2022-08-04T10:56:12;0.00;0.00;0.00
72709;PMS7003;60827;48.398;-4.498;2022-08-04T10:58:48;0.00;0.00;0.00
72709;PMS7003;60827;48.398;-4.498;2022-08-04T11:01:22;0.00;0.00;0.00
72709;PMS7003;60827;48.398;-4.498;2022-08-04T11:03:59;0.00;0.00;0.00
72709;PMS7003;60827;48.398;-4.498;2022-08-04T11:06:29;0.00;0.00;0.00
72709;PMS7003;60827;48.398;-4.498;2022-08-04T11:08:57;0.00;0.00;0.00
72709;PMS7003;60827;48.398;-4.498;2022-08-04T11:14:10;0.00;0.00;0.00
72709;PMS7003;60827;48.398;-4.498;2022-08-04T11:16:43;0.00;0.00;0.00
72709;PMS7003;60827;48.398;-4.498;2022-08-04T11:21:48;0.00;0.00;0.00
72709;PMS7003;60827;48.398;-4.498;2022-08-04T11:26:58;0.00;0.00;0.00
72709;PMS7003;60827;48.398;-4.498;2022-08-04T11:29:50;0.00;0.00;0.00
72709;PMS7003;60827;48.398;-4.498;2022-08-04T11:33:08;0.00;0.00;0.00
72709;PMS7003;60827;48.398;-4.498;2022-08-04T11:35:28;0.00;0.00;0.00
72709;PMS7003;60827;48.398;-4.498;2022-08-04T11:41:11;0.00;0.00;0.00
72709;PMS7003;60827;48.398;-4.498;2022-08-04T11:43:48;0.00;0.00;0.00
72709;PMS7003;60827;48.398;-4.498;2022-08-04T11:46:25;0.00;0.00;0.00
72709;PMS7003;60827;48.398;-4.498;2022-08-04T11:49:40;0.00;0.00;0.00
72709;PMS7003;60827;48.398;-4.498;2022-08-04T11:51:54;0.00;0.00;0.00
72709;PMS7003;60827;48.398;-4.498;2022-08-04T11:54:22;0.00;0.00;0.00
72709;PMS7003;60827;48.398;-4.498;2022-08-04T11:56:48;0.00;0.00;0.00
72709;PMS7003;60827;48.398;-4.498;2022-08-04T11:59:13;0.00;0.00;0.00
72709;PMS7003;60827;48.398;-4.498;2022-08-04T12:07:05;0.00;0.00;0.00
72709;PMS7003;60827;48.398;-4.498;2022-08-04T12:15:29;0.00;0.00;0.00
72709;PMS7003;60827;48.398;-4.498;2022-08-04T12:20:38;0.00;0.00;0.00
72709;PMS7003;60827;48.398;-4.498;2022-08-04T12:23:14;0.00;0.00;0.00
72709;PMS7003;60827;48.398;-4.498;2022-08-04T12:25:45;0.00;0.00;0.00
72709;PMS7003;60827;48.398;-4.498;2022-08-04T12:28:31;0.00;0.00;0.00
72709;PMS7003;60827;48.398;-4.498;2022-08-04T12:31:01;0.00;0.00;0.00
72709;PMS7003;60827;48.398;-4.498;2022-08-04T12:33:39;0.00;0.00;0.00
72709;PMS7003;60827;48.398;-4.498;2022-08-04T12:39:08;0.00;0.00;0.00
72709;PMS7003;60827;48.398;-4.498;2022-08-04T12:41:42;0.00;0.00;0.00
72709;PMS7003;60827;48.398;-4.498;2022-08-04T12:44:14;0.00;0.00;0.00
72709;PMS7003;60827;48.398;-4.498;2022-08-04T12:46:44;0.00;0.00;0.00
72709;PMS7003;60827;48.398;-4.498;2022-08-04T12:49:11;0.00;0.00;0.00
72709;PMS7003;60827;48.398;-4.498;2022-08-04T12:51:39;0.00;0.00;0.00
72709;PMS7003;60827;48.398;-4.498;2022-08-04T12:54:07;0.00;0.00;0.00
72709;PMS7003;60827;48.398;-4.498;2022-08-04T12:56:34;0.00;0.00;0.00
72709;PMS7003;60827;48.398;-4.498;2022-08-04T12:59:05;0.00;0.00;0.00
72709;PMS7003;60827;48.398;-4.498;2022-08-04T13:01:32;0.00;0.00;0.00
72709;PMS7003;60827;48.398;-4.498;2022-08-04T13:04:12;0.00;0.00;0.00
72709;PMS7003;60827;48.398;-4.498;2022-08-04T13:06:42;0.00;0.00;0.00
72709;PMS7003;60827;48.398;-4.498;2022-08-04T13:09:15;0.00;0.00;0.00
72709;PMS7003;60827;48.398;-4.498;2022-08-04T13:11:48;0.00;0.00;0.00
72709;PMS7003;60827;48.398;-4.498;2022-08-04T13:14:16;0.00;0.00;0.00
72709;PMS7003;60827;48.398;-4.498;2022-08-04T13:16:44;0.00;0.00;0.00
72709;PMS7003;60827;48.398;-4.498;2022-08-04T13:19:09;0.00;0.00;0.00
72709;PMS7003;60827;48.398;-4.498;2022-08-04T13:21:41;0.00;0.00;0.00
72709;PMS7003;60827;48.398;-4.498;2022-08-04T13:24:13;0.00;0.00;0.00
72709;PMS7003;60827;48.398;-4.498;2022-08-04T13:26:47;0.00;0.00;0.00
72709;PMS7003;60827;48.398;-4.498;2022-08-04T13:29:29;0.00;0.00;0.00
72709;PMS7003;60827;48.398;-4.498;2022-08-04T13:32:00;0.00;0.00;0.00
72709;PMS7003;60827;48.398;-4.498;2022-08-04T13:34:26;0.00;0.00;0.00
72709;PMS7003;60827;48.398;-4.498;2022-08-04T13:36:53;0.00;0.00;0.00
72709;PMS7003;60827;48.398;-4.498;2022-08-04T13:39:20;0.00;0.00;0.00
72709;PMS7003;60827;48.398;-4.498;2022-08-04T13:41:50;0.00;0.00;0.00
72709;PMS7003;60827;48.398;-4.498;2022-08-04T13:44:28;0.00;0.00;0.00
72709;PMS7003;60827;48.398;-4.498;2022-08-04T13:47:00;0.00;0.00;0.00
72709;PMS7003;60827;48.398;-4.498;2022-08-04T13:49:30;0.00;0.00;0.00
72709;PMS7003;60827;48.398;-4.498;2022-08-04T13:51:59;0.00;0.00;0.00
72709;PMS7003;60827;48.398;-4.498;2022-08-04T13:54:38;0.00;0.00;0.00
72709;PMS7003;60827;48.398;-4.498;2022-08-04T13:57:15;0.00;0.00;0.00
72709;PMS7003;60827;48.398;-4.498;2022-08-04T13:59:43;0.00;0.00;0.00
72709;PMS7003;60827;48.398;-4.498;2022-08-04T14:02:37;0.00;0.00;0.00
72709;PMS7003;60827;48.398;-4.498;2022-08-04T14:05:14;0.00;0.00;0.00
72709;PMS7003;60827;48.398;-4.498;2022-08-04T14:07:46;0.00;0.00;0.00
72709;PMS7003;60827;48.398;-4.498;2022-08-04T14:10:18;0.00;0.00;0.00
72709;PMS7003;60827;48.398;-4.498;2022-08-04T14:12:46;0.00;0.00;0.00
72709;PMS7003;60827;48.398;-4.498;2022-08-04T14:18:16;0.00;0.00;0.00
72709;PMS7003;60827;48.398;-4.498;2022-08-04T14:21:01;0.00;0.00;0.00
72709;PMS7003;60827;48.398;-4.498;2022-08-04T14:23:27;0.00;0.00;0.00
72709;PMS7003;60827;48.398;-4.498;2022-08-04T14:25:54;0.00;0.00;0.00
72709;PMS7003;60827;48.398;-4.498;2022-08-04T14:28:29;0.00;0.00;0.00
72709;PMS7003;60827;48.398;-4.498;2022-08-04T14:33:51;0.00;0.00;0.00
72709;PMS7003;60827;48.398;-4.498;2022-08-04T14:36:19;0.00;0.00;0.00
72709;PMS7003;60827;48.398;-4.498;2022-08-04T14:41:25;0.00;0.00;0.00
72709;PMS7003;60827;48.398;-4.498;2022-08-04T14:43:52;0.00;0.00;0.00
72709;PMS7003;60827;48.398;-4.498;2022-08-04T14:46:20;0.00;0.00;0.00
72709;PMS7003;60827;48.398;-4.498;2022-08-04T14:51:39;0.00;0.00;0.00
72709;PMS7003;60827;48.398;-4.498;2022-08-04T14:54:06;0.00;0.00;0.00
72709;PMS7003;60827;48.398;-4.498;2022-08-04T14:56:50;0.00;0.00;0.00
72709;PMS7003;60827;48.398;-4.498;2022-08-04T14:59:18;0.00;0.00;0.00
72709;PMS7003;60827;48.398;-4.498;2022-08-04T15:01:44;0.00;0.00;0.00
72709;PMS7003;60827;48.398;-4.498;2022-08-04T15:04:10;0.00;0.00;0.00
72709;PMS7003;60827;48.398;-4.498;2022-08-04T15:06:36;0.00;0.00;0.00
72709;PMS7003;60827;48.398;-4.498;2022-08-04T15:09:06;0.00;0.00;0.00
72709;PMS7003;60827;48.398;-4.498;2022-08-04T15:11:34;0.00;0.00;0.00
72709;PMS7003;60827;48.398;-4.498;2022-08-04T15:14:00;0.00;0.00;0.00
72709;PMS7003;60827;48.398;-4.498;2022-08-04T15:16:28;1.00;0.00;0.00
72709;PMS7003;60827;48.398;-4.498;2022-08-04T15:18:55;0.50;0.00;0.00
72709;PMS7003;60827;48.398;-4.498;2022-08-04T15:21:22;0.00;0.00;0.00
72709;PMS7003;60827;48.398;-4.498;2022-08-04T15:23:49;0.00;0.00;0.00
72709;PMS7003;60827;48.398;-4.498;2022-08-04T15:26:21;0.00;0.00;0.00
72709;PMS7003;60827;48.398;-4.498;2022-08-04T15:28:49;0.00;0.00;0.00
72709;PMS7003;60827;48.398;-4.498;2022-08-04T15:31:18;0.00;0.00;0.00
72709;PMS7003;60827;48.398;-4.498;2022-08-04T15:33:46;0.25;0.00;0.00
72709;PMS7003;60827;48.398;-4.498;2022-08-04T15:44:57;0.00;0.00;0.00
72709;PMS7003;60827;48.398;-4.498;2022-08-04T15:47:12;0.00;0.00;0.00
72709;PMS7003;60827;48.398;-4.498;2022-08-04T15:49:39;0.00;0.00;0.00
72709;PMS7003;60827;48.398;-4.498;2022-08-04T15:52:06;0.00;0.00;0.00
72709;PMS7003;60827;48.398;-4.498;2022-08-04T15:54:34;0.25;0.00;0.00
72709;PMS7003;60827;48.398;-4.498;2022-08-04T15:57:03;0.00;0.00;0.00
72709;PMS7003;60827;48.398;-4.498;2022-08-04T16:07:56;0.00;0.00;0.00
72709;PMS7003;60827;48.398;-4.498;2022-08-04T16:12:54;0.00;0.00;0.00
72709;PMS7003;60827;48.398;-4.498;2022-08-04T16:16:00;0.00;0.00;0.00
72709;PMS7003;60827;48.398;-4.498;2022-08-04T16:20:50;0.00;0.00;0.00
72709;PMS7003;60827;48.398;-4.498;2022-08-04T16:26:07;0.75;0.75;0.50
72709;PMS7003;60827;48.398;-4.498;2022-08-04T16:28:36;0.00;0.00;0.00
72709;PMS7003;60827;48.398;-4.498;2022-08-04T16:31:04;0.00;0.00;0.00
72709;PMS7003;60827;48.398;-4.498;2022-08-04T16:33:31;0.00;0.00;0.00
72709;PMS7003;60827;48.398;-4.498;2022-08-04T16:35:58;0.00;0.00;0.00
72709;PMS7003;60827;48.398;-4.498;2022-08-04T16:38:24;0.00;0.00;0.00
72709;PMS7003;60827;48.398;-4.498;2022-08-04T16:40:53;0.00;0.00;0.00
72709;PMS7003;60827;48.398;-4.498;2022-08-04T16:43:20;0.00;0.00;0.00
72709;PMS7003;60827;48.398;-4.498;2022-08-04T16:48:17;0.00;0.00;0.00
72709;PMS7003;60827;48.398;-4.498;2022-08-04T16:53:12;0.00;0.00;0.00
72709;PMS7003;60827;48.398;-4.498;2022-08-04T16:55:50;1.50;0.00;0.00
72709;PMS7003;60827;48.398;-4.498;2022-08-04T16:58:17;0.00;0.00;0.00
72709;PMS7003;60827;48.398;-4.498;2022-08-04T17:00:49;0.25;0.25;0.00
72709;PMS7003;60827;48.398;-4.498;2022-08-04T17:03:16;0.00;0.00;0.00
72709;PMS7003;60827;48.398;-4.498;2022-08-04T17:05:41;0.00;0.00;0.00
72709;PMS7003;60827;48.398;-4.498;2022-08-04T17:08:07;0.00;0.00;0.00
72709;PMS7003;60827;48.398;-4.498;2022-08-04T17:10:37;1.00;1.00;0.00
72709;PMS7003;60827;48.398;-4.498;2022-08-04T17:15:50;0.25;0.25;0.00
72709;PMS7003;60827;48.398;-4.498;2022-08-04T17:18:28;0.00;0.00;0.00
72709;PMS7003;60827;48.398;-4.498;2022-08-04T17:20:56;0.50;0.50;0.00
72709;PMS7003;60827;48.398;-4.498;2022-08-04T17:28:32;3.00;0.00;0.00
72709;PMS7003;60827;48.398;-4.498;2022-08-04T17:30:59;0.00;0.00;0.00
72709;PMS7003;60827;48.398;-4.498;2022-08-04T17:33:25;0.00;0.00;0.00
72709;PMS7003;60827;48.398;-4.498;2022-08-04T17:35:52;0.00;0.00;0.00
72709;PMS7003;60827;48.398;-4.498;2022-08-04T17:38:20;0.25;0.25;0.00
72709;PMS7003;60827;48.398;-4.498;2022-08-04T17:40:57;0.00;0.00;0.00
72709;PMS7003;60827;48.398;-4.498;2022-08-04T17:43:46;0.00;0.00;0.00
72709;PMS7003;60827;48.398;-4.498;2022-08-04T17:46:16;0.00;0.00;0.00
72709;PMS7003;60827;48.398;-4.498;2022-08-04T17:48:43;0.00;0.00;0.00
72709;PMS7003;60827;48.398;-4.498;2022-08-04T17:51:15;0.00;0.00;0.00
72709;PMS7003;60827;48.398;-4.498;2022-08-04T17:53:42;0.00;0.00;0.00
72709;PMS7003;60827;48.398;-4.498;2022-08-04T18:01:46;0.00;0.00;0.00
72709;PMS7003;60827;48.398;-4.498;2022-08-04T18:07:17;1.00;0.00;0.00
72709;PMS7003;60827;48.398;-4.498;2022-08-04T18:09:55;0.00;0.00;0.00
72709;PMS7003;60827;48.398;-4.498;2022-08-04T18:12:26;0.00;0.00;0.00
72709;PMS7003;60827;48.398;-4.498;2022-08-04T18:14:57;0.00;0.00;0.00
72709;PMS7003;60827;48.398;-4.498;2022-08-04T18:17:37;0.00;0.00;0.00
72709;PMS7003;60827;48.398;-4.498;2022-08-04T18:20:07;1.25;0.00;0.00
72709;PMS7003;60827;48.398;-4.498;2022-08-04T18:22:40;0.00;0.00;0.00
72709;PMS7003;60827;48.398;-4.498;2022-08-04T18:25:07;0.00;0.00;0.00
72709;PMS7003;60827;48.398;-4.498;2022-08-04T18:27:34;0.50;0.00;0.00
72709;PMS7003;60827;48.398;-4.498;2022-08-04T18:30:09;0.00;0.00;0.00
72709;PMS7003;60827;48.398;-4.498;2022-08-04T18:32:35;0.00;0.00;0.00
72709;PMS7003;60827;48.398;-4.498;2022-08-04T18:35:00;2.25;0.00;0.00
72709;PMS7003;60827;48.398;-4.498;2022-08-04T18:37:26;0.00;0.00;0.00
72709;PMS7003;60827;48.398;-4.498;2022-08-04T18:39:51;0.00;0.00;0.00
72709;PMS7003;60827;48.398;-4.498;2022-08-04T18:42:17;0.00;0.00;0.00
72709;PMS7003;60827;48.398;-4.498;2022-08-04T18:44:42;0.00;0.00;0.00
72709;PMS7003;60827;48.398;-4.498;2022-08-04T18:47:07;0.00;0.00;0.00
72709;PMS7003;60827;48.398;-4.498;2022-08-04T18:49:33;0.00;0.00;0.00
72709;PMS7003;60827;48.398;-4.498;2022-08-04T18:51:58;0.00;0.00;0.00
72709;PMS7003;60827;48.398;-4.498;2022-08-04T18:54:24;0.00;0.00;0.00
72709;PMS7003;60827;48.398;-4.498;2022-08-04T18:56:50;0.00;0.00;0.00
72709;PMS7003;60827;48.398;-4.498;2022-08-04T18:59:17;0.00;0.00;0.00
72709;PMS7003;60827;48.398;-4.498;2022-08-04T19:01:44;0.00;0.00;0.00
72709;PMS7003;60827;48.398;-4.498;2022-08-04T19:04:09;0.25;0.00;0.00
72709;PMS7003;60827;48.398;-4.498;2022-08-04T19:06:35;0.00;0.00;0.00
72709;PMS7003;60827;48.398;-4.498;2022-08-04T19:09:02;0.00;0.00;0.00
72709;PMS7003;60827;48.398;-4.498;2022-08-04T19:11:28;0.00;0.00;0.00
72709;PMS7003;60827;48.398;-4.498;2022-08-04T19:13:54;0.00;0.00;0.00